Time;durP1;ratioP1;P1;durP2;ratioP2;P2;SDS_P1;SDS_P2;PMS_P1;PMS_P2;Temp;Humidity;BMP_temperature;BMP_pressure;BME280_temperature;BME280_humidity;BME280_pressure;Samples;Min_cycle;Max_cycle;Signal;HPM_P1;HPM_P2
2022/10/20 00:00:22;;;;;;;;;;;;;;;;;;;;;
2022/10/20 00:02:56;;;;;;;19.70;16.50;;;12.40;1.00;;;;;;6245484;23;20443;-86
2022/10/20 00:05:44;;;;;;;20.93;15.20;;;12.40;1.00;;;;;;6244632;23;20411;-86
2022/10/20 00:08:20;;;;;;;;;;;;;;;;;;;;;
2022/10/20 00:11:44;;;;;;;;;;;;;;;;;;;;;
2022/10/20 00:14:54;;;;;;;27.73;15.77;;;12.30;1.00;;;;;;6244978;23;20431;-85
2022/10/20 00:18:01;;;;;;;22.90;14.70;;;12.40;1.00;;;;;;6244910;23;20764;-84
2022/10/20 00:27:46;;;;;;;;;;;;;;;;;;;;;
2022/10/20 00:30:24;;;;;;;;;;;;;;;;;;;;;
2022/10/20 00:36:06;;;;;;;28.17;17.23;;;12.30;1.00;;;;;;6233749;23;20380;-86
2022/10/20 00:38:36;;;;;;;27.10;17.80;;;12.30;1.00;;;;;;6243075;23;20802;-86
2022/10/20 00:41:31;;;;;;;;;;;;;;;;;;;;;
2022/10/20 00:44:39;;;;;;;27.60;17.63;;;12.30;1.00;;;;;;6244453;23;20499;-86
2022/10/20 00:47:06;;;;;;;24.50;18.27;;;12.30;1.00;;;;;;6177209;23;20478;-86
2022/10/20 00:49:40;;;;;;;26.40;16.80;;;12.30;1.00;;;;;;6216176;23;20852;-85
2022/10/20 00:52:10;;;;;;;26.73;16.43;;;12.30;1.00;;;;;;6216301;23;20941;-85
2022/10/20 00:54:38;;;;;;;27.23;17.20;;;12.30;1.00;;;;;;6217112;23;20454;-86
2022/10/20 00:57:09;;;;;;;35.03;16.50;;;12.30;1.00;;;;;;6243141;23;20372;-85
2022/10/20 00:59:36;;;;;;;28.03;20.60;;;12.30;1.00;;;;;;6216979;23;20426;-85
2022/10/20 01:02:05;;;;;;;27.07;17.40;;;12.40;1.00;;;;;;6244474;23;20376;-86
2022/10/20 01:08:01;;;;;;;;;;;;;;;;;;;;;
2022/10/20 01:14:17;;;;;;;24.00;19.07;;;12.30;1.00;;;;;;6232265;23;20753;-85
2022/10/20 01:16:55;;;;;;;28.03;16.50;;;12.30;1.00;;;;;;6217324;23;20953;-86
2022/10/20 01:19:32;;;;;;;27.50;18.27;;;12.30;1.00;;;;;;6216249;23;20403;-86
2022/10/20 01:22:19;;;;;;;24.53;17.40;;;12.30;1.00;;;;;;6243524;23;20362;-88
2022/10/20 01:25:03;;;;;;;25.93;16.90;;;12.30;1.00;;;;;;6217886;23;20426;-85
2022/10/20 01:28:19;;;;;;;24.93;16.57;;;12.40;1.00;;;;;;6218057;23;20842;-85
2022/10/20 01:30:51;;;;;;;24.20;17.93;;;12.40;1.00;;;;;;6237036;22;20414;-85
2022/10/20 01:33:46;;;;;;;24.77;17.37;;;12.40;1.00;;;;;;6245731;23;20837;-85
2022/10/20 01:36:21;;;;;;;25.50;15.90;;;12.40;1.00;;;;;;6244405;23;20355;-86
2022/10/20 01:39:00;;;;;;;22.40;14.07;;;12.40;1.00;;;;;;6218336;22;20526;-85
2022/10/20 01:41:48;;;;;;;33.10;16.27;;;12.40;1.00;;;;;;6246408;23;20935;-87
2022/10/20 01:44:28;;;;;;;21.50;14.67;;;12.40;1.00;;;;;;6219545;23;20504;-84
2022/10/20 01:46:55;;;;;;;20.13;14.47;;;12.40;1.00;;;;;;6245674;23;20379;-85
2022/10/20 01:49:31;;;;;;;22.70;15.37;;;12.40;1.00;;;;;;6219630;23;20412;-86
2022/10/20 01:52:07;;;;;;;27.87;17.40;;;12.40;1.00;;;;;;6246491;23;20477;-85
2022/10/20 01:54:38;;;;;;;28.23;15.27;;;12.40;1.00;;;;;;6218908;23;20457;-85
2022/10/20 02:01:15;;;;;;;22.50;15.00;;;12.40;1.00;;;;;;6245684;22;20450;-85
2022/10/20 02:04:04;;;;;;;;;;;;;;;;;;;;;
2022/10/20 02:29:40;;;;;;;;;;;;;;;;;;;;;
2022/10/20 02:36:06;;;;;;;;;;;;;;;;;;;;;
2022/10/20 02:46:04;;;;;;;21.77;15.73;;;12.40;1.00;;;;;;6222927;23;20443;-87
2022/10/20 02:49:00;;;;;;;18.67;14.37;;;12.40;1.00;;;;;;6245523;23;20404;-84
2022/10/20 02:54:52;;;;;;;20.13;14.33;;;12.40;1.00;;;;;;6233124;23;20380;-85
2022/10/20 02:57:17;;;;;;;27.03;15.77;;;12.40;1.00;;;;;;6246100;23;20372;-86
2022/10/20 02:59:45;;;;;;;28.73;16.37;;;12.40;1.00;;;;;;6217232;23;20200;-86
2022/10/20 03:02:11;;;;;;;18.00;14.73;;;12.40;1.00;;;;;;6244213;23;20145;-85
2022/10/20 03:04:36;;;;;;;22.47;14.30;;;12.40;1.00;;;;;;6218016;23;20967;-85
2022/10/20 03:07:02;;;;;;;17.80;13.60;;;12.40;1.00;;;;;;6244811;23;20160;-85
2022/10/20 03:09:28;;;;;;;21.53;13.50;;;12.40;1.00;;;;;;6247100;22;20227;-86
2022/10/20 03:11:56;;;;;;;18.43;13.17;;;12.40;1.00;;;;;;6220845;23;20211;-84
2022/10/20 03:14:21;;;;;;;19.47;14.20;;;12.40;1.00;;;;;;6247032;23;20669;-85
2022/10/20 03:16:47;;;;;;;17.30;12.50;;;12.40;1.00;;;;;;6245041;23;20380;-85
2022/10/20 03:19:12;;;;;;;19.10;14.00;;;12.40;1.00;;;;;;6217159;23;20634;-87
2022/10/20 03:21:48;;;;;;;;;;;;;;;;;;;;;
2022/10/20 03:24:57;;;;;;;21.87;13.93;;;12.40;1.00;;;;;;6245276;23;20244;-85
2022/10/20 03:27:55;;;;;;;;;;;;;;;;;;;;;
2022/10/20 03:31:00;;;;;;;21.03;15.27;;;12.40;1.00;;;;;;6244766;22;20466;-86
2022/10/20 03:34:25;;;;;;;;;;;;;;;;;;;;;
2022/10/20 03:36:56;;;;;;;18.37;14.73;;;12.30;1.00;;;;;;6241921;23;20451;-85
2022/10/20 03:40:02;;;;;;;21.20;13.57;;;12.30;1.00;;;;;;6245202;22;20392;-83
2022/10/20 03:43:08;;;;;;;21.50;13.60;;;12.30;1.00;;;;;;6218173;23;20442;-85
2022/10/20 03:53:05;;;;;;;;;;;;;;;;;;;;;
2022/10/20 03:58:53;;;;;;;27.47;14.87;;;12.30;1.00;;;;;;6226219;23;20691;-85
2022/10/20 04:01:59;;;;;;;18.47;14.07;;;12.30;1.00;;;;;;6217810;23;20383;-85
2022/10/20 04:11:29;;;;;;;17.67;14.00;;;12.20;1.00;;;;;;6220344;23;20752;-84
2022/10/20 04:17:35;;;;;;;;;;;;;;;;;;;;;
2022/10/20 04:20:43;;;;;;;17.30;13.23;;;12.20;1.00;;;;;;6244882;22;20789;-85
2022/10/20 04:43:33;;;;;;;17.93;14.00;;;12.20;1.00;;;;;;6223478;23;20850;-84
2022/10/20 04:52:30;;;;;;;17.10;12.30;;;12.20;1.00;;;;;;6243980;23;20383;-86
2022/10/20 04:54:55;;;;;;;15.93;14.20;;;12.20;1.00;;;;;;6217023;23;20706;-86
2022/10/20 04:57:23;;;;;;;22.70;14.53;;;12.20;1.00;;;;;;6217564;23;20376;-85
2022/10/20 04:59:54;;;;;;;22.20;14.90;;;12.20;1.00;;;;;;6216067;23;20176;-85
2022/10/20 05:02:29;;;;;;;18.67;12.63;;;12.20;1.00;;;;;;6217559;23;20900;-84
2022/10/20 05:04:54;;;;;;;19.87;13.87;;;12.20;1.00;;;;;;6244232;23;20461;-84
2022/10/20 05:07:49;;;;;;;20.10;14.07;;;12.10;1.00;;;;;;6216059;23;20388;-85
2022/10/20 05:10:16;;;;;;;17.23;13.53;;;12.20;1.00;;;;;;6217276;23;20204;-85
2022/10/20 05:12:44;;;;;;;18.10;14.30;;;12.10;1.00;;;;;;6244934;23;21148;-84
2022/10/20 05:15:19;;;;;;;23.70;14.33;;;12.10;1.00;;;;;;6246775;23;20447;-84
2022/10/20 05:21:34;;;;;;;18.53;12.80;;;12.20;1.00;;;;;;6234420;23;20407;-83
2022/10/20 05:24:32;;;;;;;;;;;;;;;;;;;;;
2022/10/20 05:27:10;;;;;;;17.10;13.37;;;12.20;1.00;;;;;;6236265;23;20483;-83
2022/10/20 05:36:50;;;;;;;21.73;12.40;;;12.20;1.00;;;;;;6222631;23;20713;-84
2022/10/20 05:40:17;;;;;;;18.13;12.37;;;12.20;1.00;;;;;;6230437;22;20408;-83
2022/10/20 05:43:30;;;;;;;17.20;12.20;;;12.20;99.90;;;;;;6241195;23;20468;-84
2022/10/20 05:58:57;;;;;;;15.27;12.40;;;12.20;99.90;;;;;;6235169;23;20387;-83
2022/10/20 06:01:57;;;;;;;12.87;10.20;;;12.10;99.90;;;;;;6218112;23;20395;-83
2022/10/20 06:11:56;;;;;;;14.03;10.13;;;12.10;99.90;;;;;;6220073;23;20699;-83
2022/10/20 06:14:38;;;;;;;14.30;10.80;;;12.10;99.90;;;;;;6240032;23;21045;-83
2022/10/20 06:17:38;;;;;;;;;;;;;;;;;;;;;
2022/10/20 06:20:17;;;;;;;;;;;;;;;;;;;;;
2022/10/20 06:26:50;;;;;;;;;;;;;;;;;;;;;
2022/10/20 06:29:47;;;;;;;16.73;11.70;;;12.20;99.90;;;;;;6245585;22;20458;-84
2022/10/20 06:35:39;;;;;;;20.40;11.83;;;12.30;99.90;;;;;;6228906;23;20885;-84
2022/10/20 06:38:05;;;;;;;15.67;10.10;;;12.30;99.90;;;;;;6229739;23;20391;-84
2022/10/20 06:40:30;;;;;;;19.63;11.50;;;12.40;99.90;;;;;;6258824;22;20199;-84
2022/10/20 06:42:56;;;;;;;17.00;11.33;;;12.40;99.90;;;;;;6257117;23;20153;-85
2022/10/20 06:45:21;;;;;;;13.50;10.60;;;12.40;99.90;;;;;;6255711;23;20177;-85
2022/10/20 06:47:47;;;;;;;14.10;10.40;;;12.50;99.90;;;;;;6252075;23;20175;-85
2022/10/20 06:50:15;;;;;;;14.43;9.27;;;12.50;99.90;;;;;;6229255;23;20173;-87
2022/10/20 06:52:42;;;;;;;15.83;11.30;;;12.50;99.90;;;;;;6236047;23;20248;-86
2022/10/20 06:55:24;;;;;;;13.67;10.30;;;12.50;99.90;;;;;;6247696;23;20429;-85
2022/10/20 06:57:50;;;;;;;16.03;11.13;;;12.50;99.90;;;;;;6247301;23;20367;-86
2022/10/20 07:00:25;;;;;;;12.10;9.93;;;12.50;99.90;;;;;;6246398;22;20404;-86
2022/10/20 07:02:53;;;;;;;17.70;10.53;;;12.50;99.90;;;;;;6245873;23;20471;-86
2022/10/20 07:09:12;;;;;;;12.43;10.00;;;12.60;96.40;;;;;;6230145;23;20399;-86
2022/10/20 07:15:05;;;;;;;15.93;11.53;;;12.70;44.40;;;;;;6221406;23;20386;-86
2022/10/20 07:17:37;;;;;;;17.87;13.13;;;12.70;28.20;;;;;;6244319;23;21107;-86
2022/10/20 07:23:45;;;;;;;;;;;;;;;;;;;;;
2022/10/20 07:35:56;;;;;;;14.50;9.90;;;13.60;1.00;;;;;;6223796;23;20382;-85
2022/10/20 07:55:39;;;;;;;;;;;;;;;;;;;;;
2022/10/20 07:58:05;;;;;;;14.80;9.70;;;15.00;1.00;;;;;;6255969;23;20402;-85
2022/10/20 08:00:33;;;;;;;13.80;11.60;;;15.20;1.00;;;;;;6258524;22;20410;-85
2022/10/20 08:02:58;;;;;;;29.20;19.60;;;15.30;1.00;;;;;;6253079;23;20171;-85
2022/10/20 08:05:28;;;;;;;20.13;10.93;;;15.30;99.90;;;;;;6251916;23;20746;-85
2022/10/20 08:07:54;;;;;;;11.80;9.83;;;15.30;99.90;;;;;;6249803;23;20156;-85
2022/10/20 08:10:19;;;;;;;15.40;11.70;;;15.30;99.90;;;;;;6250994;22;20402;-84
2022/10/20 08:12:45;;;;;;;13.20;9.57;;;15.30;99.90;;;;;;6248450;23;20149;-85
2022/10/20 08:15:13;;;;;;;15.23;10.83;;;15.30;1.00;;;;;;6248557;23;20539;-82
2022/10/20 08:17:38;;;;;;;21.47;11.40;;;15.20;99.90;;;;;;6250450;23;20159;-82
2022/10/20 08:20:05;;;;;;;13.37;11.77;;;15.10;1.00;;;;;;6247883;22;20476;-82
2022/10/20 08:22:33;;;;;;;15.20;10.10;;;15.20;1.00;;;;;;6249860;23;20155;-82
2022/10/20 08:25:01;;;;;;;17.33;12.40;;;15.20;1.00;;;;;;6245783;23;20418;-83
2022/10/20 08:27:27;;;;;;;17.00;11.37;;;15.20;1.00;;;;;;6249177;23;20825;-82
2022/10/20 08:29:52;;;;;;;15.70;11.80;;;15.30;1.00;;;;;;6248013;22;20404;-82
2022/10/20 08:32:18;;;;;;;15.87;11.53;;;15.50;99.90;;;;;;6248351;23;20153;-83
2022/10/20 08:34:45;;;;;;;14.03;11.40;;;16.10;1.00;;;;;;6246161;23;20158;-83
2022/10/20 08:37:16;;;;;;;15.70;9.87;;;16.80;99.90;;;;;;6247904;23;20598;-83
2022/10/20 08:39:41;;;;;;;14.27;10.10;;;17.70;58.40;;;;;;6248531;22;20906;-85
2022/10/20 08:42:09;;;;;;;15.57;10.23;;;18.00;1.00;;;;;;6246093;23;20387;-85
2022/10/20 08:44:38;;;;;;;15.13;9.87;;;17.70;1.00;;;;;;6245974;23;20580;-85
2022/10/20 08:47:31;;;;;;;15.03;11.73;;;17.60;1.00;;;;;;6217238;23;20448;-84
2022/10/20 08:50:00;;;;;;;11.83;10.63;;;17.50;1.00;;;;;;6245826;22;20403;-84
2022/10/20 08:52:33;;;;;;;12.63;10.20;;;17.30;1.00;;;;;;6247172;23;20388;-85
2022/10/20 08:54:59;;;;;;;11.73;9.80;;;17.10;1.00;;;;;;6246372;23;20361;-85
2022/10/20 08:57:32;;;;;;;12.20;8.87;;;17.10;1.00;;;;;;6247605;23;20576;-84
2022/10/20 09:00:06;;;;;;;11.13;9.23;;;16.90;1.00;;;;;;6221328;23;20242;-85
2022/10/20 09:02:33;;;;;;;12.57;9.80;;;16.80;1.00;;;;;;6220236;23;20380;-85
2022/10/20 09:04:59;;;;;;;13.40;9.03;;;17.10;1.00;;;;;;6247532;23;20426;-85
2022/10/20 09:07:39;;;;;;;11.43;10.07;;;18.40;1.00;;;;;;6246760;23;20386;-84
2022/10/20 09:10:23;;;;;;;10.63;9.63;;;19.40;1.00;;;;;;6218470;23;20416;-85
2022/10/20 09:12:57;;;;;;;10.37;8.70;;;19.70;99.90;;;;;;6246790;23;20391;-84
2022/10/20 09:15:31;;;;;;;12.60;10.40;;;19.40;99.90;;;;;;6219877;23;20393;-84
2022/10/20 09:18:20;;;;;;;11.37;9.80;;;19.10;99.90;;;;;;6220297;23;20426;-84
2022/10/20 09:20:57;;;;;;;15.43;11.10;;;18.30;99.90;;;;;;6236996;22;20402;-85
2022/10/20 09:23:43;;;;;;;11.03;8.90;;;17.70;99.90;;;;;;6244621;23;20395;-85
2022/10/20 09:26:24;;;;;;;14.93;11.30;;;17.10;1.00;;;;;;6218760;23;20384;-85
2022/10/20 09:29:04;;;;;;;14.27;10.10;;;16.70;1.00;;;;;;6244699;22;20377;-86
2022/10/20 09:31:40;;;;;;;14.53;11.83;;;16.30;19.90;;;;;;6217568;23;20376;-85
2022/10/20 09:34:30;;;;;;;13.07;10.47;;;16.10;99.90;;;;;;6246578;23;20743;-85
2022/10/20 09:37:17;;;;;;;18.53;11.30;;;16.00;99.90;;;;;;6246681;23;20917;-85
2022/10/20 09:39:46;;;;;;;17.03;11.90;;;15.90;1.00;;;;;;6219278;23;20461;-85
2022/10/20 09:46:01;;;;;;;12.53;10.63;;;15.70;1.00;;;;;;6225092;23;20426;-86
2022/10/20 09:52:36;;;;;;;;;;;;;;;;;;;;;
2022/10/20 09:58:31;;;;;;;17.43;11.77;;;15.70;1.00;;;;;;6221958;23;20386;-85
2022/10/20 10:01:31;;;;;;;13.20;11.47;;;15.70;44.10;;;;;;6222201;23;20411;-85
2022/10/20 10:04:30;;;;;;;15.37;10.80;;;15.80;99.90;;;;;;6219711;23;20458;-84
2022/10/20 10:07:31;;;;;;;17.53;11.43;;;16.10;1.00;;;;;;6218950;23;20388;-86
2022/10/20 10:10:13;;;;;;;15.37;11.37;;;16.20;1.00;;;;;;6247970;22;21401;-85
2022/10/20 10:13:23;;;;;;;23.30;12.70;;;16.30;1.00;;;;;;6223730;23;20376;-85
2022/10/20 10:23:39;;;;;;;;;;;;;;;;;;;;;
2022/10/20 10:26:44;;;;;;;18.27;13.97;;;15.90;99.90;;;;;;6219354;23;20899;-85
2022/10/20 10:29:25;;;;;;;19.63;15.77;;;15.80;99.90;;;;;;6243790;22;20418;-86
2022/10/20 10:32:17;;;;;;;18.27;15.03;;;15.60;99.90;;;;;;6223373;23;20395;-85
2022/10/20 10:35:06;;;;;;;24.37;20.73;;;15.40;99.90;;;;;;6225219;23;20717;-86
2022/10/20 10:37:36;;;;;;;32.77;24.27;;;15.20;99.90;;;;;;6250286;23;20343;-86
2022/10/20 10:40:13;;;;;;;20.20;15.90;;;15.00;1.00;;;;;;6251006;22;20395;-83
2022/10/20 10:42:52;;;;;;;29.37;21.27;;;15.00;1.00;;;;;;6251998;23;20827;-83
2022/10/20 10:45:46;;;;;;;22.30;15.93;;;14.90;64.10;;;;;;6252594;23;20401;-82
2022/10/20 10:48:19;;;;;;;25.40;21.43;;;14.80;99.90;;;;;;6249323;23;20354;-85
2022/10/20 10:50:57;;;;;;;25.13;16.83;;;14.80;99.90;;;;;;6247321;22;20399;-86
2022/10/20 10:53:38;;;;;;;24.80;16.70;;;14.70;99.90;;;;;;6247123;23;20418;-83
2022/10/20 10:56:09;;;;;;;24.43;17.20;;;14.60;99.90;;;;;;6248030;23;20375;-83
2022/10/20 10:59:12;;;;;;;21.30;17.37;;;14.50;99.90;;;;;;6221095;23;20770;-83
2022/10/20 11:01:47;;;;;;;30.50;25.97;;;14.50;99.90;;;;;;6248188;23;20435;-85
2022/10/20 11:04:21;;;;;;;24.17;21.00;;;14.40;1.00;;;;;;6221109;23;20504;-85
2022/10/20 11:06:59;;;;;;;39.83;26.97;;;14.40;1.00;;;;;;6248810;23;20362;-85
2022/10/20 11:10:16;;;;;;;;;;;;;;;;;;;;;
2022/10/20 11:16:57;;;;;;;;;;;;;;;;;;;;;
2022/10/20 11:20:13;;;;;;;;;;;;;;;;;;;;;
2022/10/20 11:23:04;;;;;;;;;;;;;;;;;;;;;
2022/10/20 11:25:40;;;;;;;37.50;21.80;;;14.20;1.00;;;;;;6253477;23;20434;-85
2022/10/20 11:29:10;;;;;;;35.40;22.70;;;14.20;1.00;;;;;;6228251;23;20727;-84
2022/10/20 11:32:18;;;;;;;34.10;23.60;;;14.20;1.00;;;;;;6138096;23;20378;-85
2022/10/20 11:35:06;;;;;;;34.80;22.87;;;14.20;1.00;;;;;;6221899;23;20397;-84
2022/10/20 11:48:09;;;;;;;37.83;23.00;;;14.00;1.00;;;;;;6223067;23;20380;-84
2022/10/20 11:54:19;;;;;;;46.67;25.70;;;13.90;1.00;;;;;;6243822;23;20410;-84
2022/10/20 11:56:54;;;;;;;41.20;23.50;;;13.80;1.00;;;;;;6218292;23;20406;-84
2022/10/20 11:59:46;;;;;;;;;;;;;;;;;;;;;
2022/10/20 12:02:46;;;;;;;38.17;24.30;;;14.00;1.00;;;;;;6243996;23;20435;-85
2022/10/20 12:06:08;;;;;;;42.00;22.57;;;14.00;1.00;;;;;;6217316;23;20817;-86
2022/10/20 12:09:15;;;;;;;46.20;23.43;;;14.20;1.00;;;;;;6213585;23;20491;-86
2022/10/20 12:12:05;;;;;;;40.40;24.80;;;14.40;1.00;;;;;;6217380;23;20423;-86
2022/10/20 12:14:56;;;;;;;42.60;23.87;;;14.60;1.00;;;;;;6243791;23;20374;-85
2022/10/20 12:17:28;;;;;;;46.50;26.20;;;14.80;1.00;;;;;;6201512;23;20386;-86
2022/10/20 12:20:22;;;;;;;46.80;29.87;;;15.00;1.00;;;;;;6244033;22;20864;-86
2022/10/20 12:23:00;;;;;;;44.10;25.93;;;15.30;1.00;;;;;;6217285;23;20414;-85
2022/10/20 12:25:26;;;;;;;37.47;23.27;;;15.50;1.00;;;;;;6243942;23;20421;-86
2022/10/20 12:31:25;;;;;;;39.53;32.07;;;15.80;1.00;;;;;;6201706;23;20558;-86
2022/10/20 12:33:52;;;;;;;33.47;22.60;;;15.90;1.00;;;;;;6218704;23;20766;-85
2022/10/20 12:36:26;;;;;;;33.27;22.03;;;16.00;1.00;;;;;;6216810;23;20869;-86
2022/10/20 12:39:08;;;;;;;29.57;21.27;;;16.10;1.00;;;;;;6217248;22;20379;-86
2022/10/20 12:41:43;;;;;;;29.33;20.50;;;16.30;1.00;;;;;;6245633;23;20373;-87
2022/10/20 12:44:18;;;;;;;24.33;19.20;;;16.40;1.00;;;;;;6216662;23;20815;-87
2022/10/20 12:47:04;;;;;;;25.97;18.13;;;16.50;1.00;;;;;;6243665;23;20462;-86
2022/10/20 12:49:39;;;;;;;26.20;18.40;;;16.60;1.00;;;;;;6217286;23;20727;-86
2022/10/20 12:52:07;;;;;;;27.93;18.93;;;16.60;99.90;;;;;;6242946;23;20734;-86
2022/10/20 12:54:38;;;;;;;21.43;18.20;;;16.60;99.90;;;;;;6243990;23;20461;-86
2022/10/20 12:57:25;;;;;;;24.10;18.27;;;16.60;1.00;;;;;;6241802;23;20373;-87
2022/10/20 13:00:32;;;;;;;22.23;17.40;;;16.60;99.90;;;;;;6244522;22;20736;-87
2022/10/20 13:03:37;;;;;;;21.97;15.30;;;16.50;99.90;;;;;;6193889;23;20462;-85
2022/10/20 13:09:26;;;;;;;17.70;14.77;;;16.50;99.90;;;;;;6170818;22;20419;-86
2022/10/20 13:21:41;;;;;;;25.30;15.63;;;16.80;99.90;;;;;;6221514;23;20378;-86
2022/10/20 13:28:21;;;;;;;18.37;15.10;;;16.90;99.90;;;;;;6234543;23;20375;-86
2022/10/20 13:35:28;;;;;;;16.03;14.20;;;17.00;1.00;;;;;;6206007;23;20387;-86
2022/10/20 13:42:38;;;;;;;;;;;;;;;;;;;;;
2022/10/20 13:45:56;;;;;;;13.20;11.90;;;18.70;1.00;;;;;;6247459;23;20810;-86
2022/10/20 13:55:54;;;;;;;;;;;;;;;;;;;;;
2022/10/20 14:05:37;;;;;;;12.40;11.13;;;21.60;1.00;;;;;;6237011;23;20462;-84
2022/10/20 14:18:56;;;;;;;16.43;13.13;;;20.70;1.00;;;;;;6224123;23;20424;-85
2022/10/20 14:21:53;;;;;;;;;;;;;;;;;;;;;
2022/10/20 14:31:47;;;;;;;;;;;;;;;;;;;;;
2022/10/20 14:38:01;;;;;;;15.43;12.80;;;20.60;41.80;;;;;;6214161;23;20779;-86
2022/10/20 14:47:47;;;;;;;18.60;13.40;;;20.40;99.90;;;;;;6221858;23;20392;-86
2022/10/20 14:50:55;;;;;;;;;;;;;;;;;;;;;
2022/10/20 14:53:34;;;;;;;14.13;12.73;;;20.40;99.90;;;;;;6243885;23;20763;-86
2022/10/20 14:59:58;;;;;;;19.93;13.17;;;20.30;99.90;;;;;;6192281;22;20430;-86
2022/10/20 15:02:54;;;;;;;15.63;11.17;;;20.20;99.90;;;;;;6232014;23;20521;-86
2022/10/20 15:05:54;;;;;;;13.43;11.23;;;20.10;99.90;;;;;;6242501;23;20905;-85
2022/10/20 15:08:28;;;;;;;15.33;12.50;;;20.10;99.90;;;;;;6215053;23;20418;-86
2022/10/20 15:11:01;;;;;;;14.67;12.10;;;20.10;99.90;;;;;;6243418;22;20399;-85
2022/10/20 15:13:33;;;;;;;20.60;12.67;;;20.00;99.90;;;;;;6218009;23;20419;-85
2022/10/20 15:16:03;;;;;;;20.70;16.17;;;19.70;1.00;;;;;;6220832;23;20389;-85
2022/10/20 15:18:31;;;;;;;25.20;19.23;;;19.40;1.00;;;;;;6220864;23;20395;-85
2022/10/20 15:20:59;;;;;;;22.90;14.43;;;19.10;78.40;;;;;;6247199;22;20396;-84
2022/10/20 15:23:27;;;;;;;16.97;12.40;;;19.00;99.90;;;;;;6221566;23;20418;-84
2022/10/20 15:26:03;;;;;;;22.80;12.90;;;18.90;1.00;;;;;;6248113;23;20883;-85
2022/10/20 15:28:41;;;;;;;16.70;12.23;;;18.70;3.30;;;;;;6223554;23;20451;-84
2022/10/20 15:31:19;;;;;;;18.33;14.50;;;18.60;99.90;;;;;;6248299;23;20360;-82
2022/10/20 15:33:45;;;;;;;16.90;12.30;;;18.40;1.00;;;;;;6221814;23;20960;-82
2022/10/20 15:36:16;;;;;;;15.60;12.20;;;18.30;99.90;;;;;;6248182;23;20428;-82
2022/10/20 15:38:42;;;;;;;17.43;13.33;;;18.20;1.00;;;;;;6246538;23;20370;-82
2022/10/20 15:41:14;;;;;;;19.53;14.07;;;18.10;99.90;;;;;;6220541;23;20779;-83
2022/10/20 15:43:40;;;;;;;17.93;13.00;;;18.00;1.00;;;;;;6220414;23;20384;-83
2022/10/20 15:46:07;;;;;;;15.80;13.10;;;17.90;1.00;;;;;;6221038;23;20887;-83
2022/10/20 15:48:33;;;;;;;16.00;13.80;;;17.70;99.90;;;;;;6247946;23;20154;-83
2022/10/20 15:50:58;;;;;;;19.50;13.67;;;17.50;1.00;;;;;;6245872;22;20404;-83
2022/10/20 15:53:26;;;;;;;14.73;13.20;;;17.40;99.90;;;;;;6220954;23;20154;-83
2022/10/20 15:55:52;;;;;;;16.33;12.47;;;17.30;1.00;;;;;;6251373;23;20149;-83
2022/10/20 15:58:19;;;;;;;14.27;11.53;;;17.20;1.00;;;;;;6221048;23;20382;-83
2022/10/20 16:00:45;;;;;;;18.53;13.80;;;17.10;1.00;;;;;;6246324;22;20170;-83
2022/10/20 16:03:16;;;;;;;15.40;12.33;;;17.00;7.70;;;;;;6247794;23;20384;-83
2022/10/20 16:05:41;;;;;;;15.33;12.57;;;17.00;53.30;;;;;;6222775;23;20190;-83
2022/10/20 16:08:07;;;;;;;13.80;12.40;;;17.00;67.40;;;;;;6249828;23;20456;-83
2022/10/20 16:10:32;;;;;;;22.83;13.40;;;17.00;99.90;;;;;;6226003;23;20201;-83
2022/10/20 16:12:58;;;;;;;16.37;12.70;;;16.90;99.90;;;;;;6229348;23;20483;-83
2022/10/20 16:15:24;;;;;;;19.40;13.87;;;16.80;99.90;;;;;;6252749;23;20164;-83
2022/10/20 16:17:50;;;;;;;17.50;12.70;;;16.80;99.90;;;;;;6251731;23;20201;-84
2022/10/20 16:20:15;;;;;;;19.27;14.03;;;16.60;99.90;;;;;;6251101;22;20800;-83
2022/10/20 16:22:41;;;;;;;16.53;12.80;;;16.50;99.90;;;;;;6251822;23;20213;-83
2022/10/20 16:25:07;;;;;;;15.73;14.00;;;16.40;99.90;;;;;;6250737;23;20196;-83
2022/10/20 16:27:33;;;;;;;14.60;12.90;;;16.40;99.90;;;;;;6248792;23;20161;-83
2022/10/20 16:29:59;;;;;;;19.30;13.37;;;16.30;99.90;;;;;;6251348;22;20392;-82
2022/10/20 16:32:36;;;;;;;17.00;13.63;;;16.20;99.90;;;;;;6248375;23;20234;-83
2022/10/20 16:35:03;;;;;;;16.07;13.00;;;16.20;99.90;;;;;;6221248;23;20410;-83
2022/10/20 16:37:30;;;;;;;14.50;12.80;;;16.20;99.90;;;;;;6246813;23;20414;-83
2022/10/20 16:39:56;;;;;;;15.60;13.00;;;16.10;99.90;;;;;;6221600;23;20431;-83
2022/10/20 16:42:22;;;;;;;19.60;12.57;;;16.10;99.90;;;;;;6248249;23;20381;-83
2022/10/20 16:44:47;;;;;;;21.37;12.80;;;16.00;1.00;;;;;;6221032;23;20199;-83
2022/10/20 16:47:13;;;;;;;16.93;13.30;;;16.00;1.00;;;;;;6247140;23;20148;-83
2022/10/20 16:49:38;;;;;;;16.40;13.57;;;15.90;1.00;;;;;;6219893;23;20719;-83
2022/10/20 16:52:04;;;;;;;22.07;13.77;;;15.90;1.00;;;;;;6246544;23;20149;-83
2022/10/20 16:54:29;;;;;;;15.80;12.87;;;15.80;1.00;;;;;;6246674;23;20179;-83
2022/10/20 16:56:55;;;;;;;13.60;11.43;;;15.80;1.00;;;;;;6219956;23;20184;-83
2022/10/20 16:59:23;;;;;;;23.17;13.23;;;15.80;1.00;;;;;;6246376;22;20173;-84
2022/10/20 17:01:49;;;;;;;19.67;13.57;;;15.80;1.00;;;;;;6246068;23;20160;-83
2022/10/20 17:04:14;;;;;;;15.97;14.00;;;15.80;1.00;;;;;;6222765;23;20425;-84
2022/10/20 17:06:40;;;;;;;18.90;15.57;;;15.80;1.00;;;;;;6221043;23;20477;-83
2022/10/20 17:09:05;;;;;;;20.27;14.23;;;15.80;1.00;;;;;;6220266;22;20529;-83
2022/10/20 17:11:31;;;;;;;16.47;12.10;;;15.70;1.00;;;;;;6219821;23;20201;-83
2022/10/20 17:13:58;;;;;;;17.90;14.33;;;15.70;1.00;;;;;;6219595;23;20160;-84
2022/10/20 17:16:30;;;;;;;16.73;14.10;;;15.70;1.00;;;;;;6246693;23;20458;-84
2022/10/20 17:18:57;;;;;;;15.70;13.07;;;15.70;1.00;;;;;;6219795;22;20422;-84
2022/10/20 17:21:23;;;;;;;19.00;13.20;;;15.60;1.00;;;;;;6247540;23;20379;-84
2022/10/20 17:23:49;;;;;;;18.40;12.40;;;15.60;1.00;;;;;;6219645;23;20440;-83
2022/10/20 17:26:20;;;;;;;18.50;14.30;;;15.60;1.00;;;;;;6248573;23;20391;-83
2022/10/20 17:28:49;;;;;;;14.90;12.77;;;15.60;1.00;;;;;;6225142;22;20156;-83
2022/10/20 17:31:16;;;;;;;23.43;13.10;;;15.60;1.00;;;;;;6252561;23;20406;-84
2022/10/20 17:33:42;;;;;;;16.20;12.80;;;15.60;1.00;;;;;;6250396;23;20379;-84
2022/10/20 17:36:10;;;;;;;18.70;14.23;;;15.60;1.00;;;;;;6250745;23;20766;-84
2022/10/20 17:38:36;;;;;;;21.93;14.17;;;15.60;1.00;;;;;;6218640;23;20939;-83
2022/10/20 17:41:07;;;;;;;20.60;15.10;;;15.60;1.00;;;;;;6245521;22;20463;-83
2022/10/20 17:43:32;;;;;;;25.07;14.90;;;15.50;1.00;;;;;;6244992;23;20776;-84
2022/10/20 17:46:03;;;;;;;27.87;18.10;;;15.50;1.00;;;;;;6247227;23;20415;-83
2022/10/20 17:48:31;;;;;;;20.13;16.20;;;15.50;1.00;;;;;;6248378;23;20159;-83
2022/10/20 17:51:06;;;;;;;27.17;14.67;;;15.50;1.00;;;;;;6248638;22;20403;-84
2022/10/20 17:53:33;;;;;;;20.97;14.57;;;15.40;1.00;;;;;;6219044;23;20377;-84
2022/10/20 17:56:07;;;;;;;34.43;26.87;;;15.40;1.00;;;;;;6246389;23;20385;-84
2022/10/20 17:58:33;;;;;;;26.30;19.27;;;15.40;1.00;;;;;;6217394;23;20772;-83
2022/10/20 18:01:28;;;;;;;31.20;25.53;;;15.40;1.00;;;;;;6245792;22;20403;-84
2022/10/20 18:04:00;;;;;;;34.07;25.53;;;15.40;1.00;;;;;;6246131;23;20187;-84
2022/10/20 22:19:51;;;;;;;;;;;;;;;;;;;;;
2022/10/20 22:22:47;;;;;;;32.37;18.93;;;15.30;1.00;;;;;;6246071;23;20438;-86
2022/10/20 22:29:19;;;;;;;;;;;;;;;;;;;;;
2022/10/20 22:36:09;;;;;;;19.90;16.97;;;15.20;1.00;;;;;;6230450;23;20374;-87
2022/10/20 22:42:51;;;;;;;;;;;;;;;;;;;;;
2022/10/20 22:49:48;;;;;;;;;;;;;;;;;;;;;
2022/10/20 23:03:51;;;;;;;;;;;;;;;;;;;;;
2022/10/20 23:24:50;;;;;;;26.23;17.07;;;15.00;1.00;;;;;;6109116;23;20460;-87
